sensor_id;sensor_type;location;lat;lon;timestamp;pressure;altitude;pressure_sealevel;temperature;humidity
21182;BME280;10749;46.296;7.524;2023-02-19T00:00:55;95845.41;;;9.10;37.75
21182;BME280;10749;46.296;7.524;2023-02-19T00:03:21;95838.34;;;9.10;37.69
21182;BME280;10749;46.296;7.524;2023-02-19T00:05:46;95838.34;;;9.10;37.90
21182;BME280;10749;46.296;7.524;2023-02-19T00:08:11;95849.56;;;9.12;37.78
21182;BME280;10749;46.296;7.524;2023-02-19T00:10:36;95841.94;;;9.09;37.66
21182;BME280;10749;46.296;7.524;2023-02-19T00:13:02;95841.94;;;9.09;37.56
21182;BME280;10749;46.296;7.524;2023-02-19T00:15:27;95845.16;;;9.03;37.63
21182;BME280;10749;46.296;7.524;2023-02-19T00:17:52;95850.19;;;8.97;38.26
21182;BME280;10749;46.296;7.524;2023-02-19T00:20:18;95848.97;;;8.91;38.38
21182;BME280;10749;46.296;7.524;2023-02-19T00:22:43;95848.41;;;8.88;38.18
21182;BME280;10749;46.296;7.524;2023-02-19T00:25:09;95839.97;;;8.84;38.13
21182;BME280;10749;46.296;7.524;2023-02-19T00:27:34;95844.41;;;8.84;37.98
21182;BME280;10749;46.296;7.524;2023-02-19T00:29:59;95835.94;;;8.80;38.06
21182;BME280;10749;46.296;7.524;2023-02-19T00:32:24;95842.06;;;8.80;37.82
21182;BME280;10749;46.296;7.524;2023-02-19T00:34:50;95838.19;;;8.75;38.08
21182;BME280;10749;46.296;7.524;2023-02-19T00:37:15;95840.72;;;8.67;38.62
21182;BME280;10749;46.296;7.524;2023-02-19T00:39:40;95837.66;;;8.71;38.10
21182;BME280;10749;46.296;7.524;2023-02-19T00:42:06;95841.00;;;8.64;38.32
21182;BME280;10749;46.296;7.524;2023-02-19T00:44:31;95838.94;;;8.58;38.63
21182;BME280;10749;46.296;7.524;2023-02-19T00:46:56;95838.56;;;8.53;38.44
21182;BME280;10749;46.296;7.524;2023-02-19T00:49:22;95843.13;;;8.51;38.26
21182;BME280;10749;46.296;7.524;2023-02-19T00:51:49;95847.44;;;8.52;38.01
21182;BME280;10749;46.296;7.524;2023-02-19T00:54:15;95844.09;;;8.50;37.84
21182;BME280;10749;46.296;7.524;2023-02-19T00:56:41;95845.75;;;8.51;38.00
21182;BME280;10749;46.296;7.524;2023-02-19T00:59:06;95841.03;;;8.54;38.28
21182;BME280;10749;46.296;7.524;2023-02-19T01:01:31;95845.47;;;8.54;38.10
21182;BME280;10749;46.296;7.524;2023-02-19T01:03:57;95845.47;;;8.54;38.08
21182;BME280;10749;46.296;7.524;2023-02-19T01:06:22;95847.84;;;8.57;38.46
21182;BME280;10749;46.296;7.524;2023-02-19T01:08:48;95850.19;;;8.60;38.16
21182;BME280;10749;46.296;7.524;2023-02-19T01:11:14;95853.78;;;8.59;38.49
21182;BME280;10749;46.296;7.524;2023-02-19T01:13:40;95846.84;;;8.58;37.18
21182;BME280;10749;46.296;7.524;2023-02-19T01:16:23;95849.91;;;8.53;37.73
21182;BME280;10749;46.296;7.524;2023-02-19T01:18:49;95847.56;;;8.50;38.09
21182;BME280;10749;46.296;7.524;2023-02-19T01:21:17;95849.38;;;8.50;38.35
21182;BME280;10749;46.296;7.524;2023-02-19T01:23:43;95843.53;;;8.46;37.67
21182;BME280;10749;46.296;7.524;2023-02-19T01:26:11;95846.34;;;8.45;37.66
21182;BME280;10749;46.296;7.524;2023-02-19T01:28:37;95846.91;;;8.39;37.95
21182;BME280;10749;46.296;7.524;2023-02-19T01:31:05;95843.31;;;8.30;38.04
21182;BME280;10749;46.296;7.524;2023-02-19T01:33:31;95842.47;;;8.29;37.80
21182;BME280;10749;46.296;7.524;2023-02-19T01:35:57;95839.69;;;8.21;38.19
21182;BME280;10749;46.296;7.524;2023-02-19T01:38:23;95842.47;;;8.20;38.08
21182;BME280;10749;46.296;7.524;2023-02-19T01:40:56;95840.50;;;8.12;38.44
21182;BME280;10749;46.296;7.524;2023-02-19T01:43:21;95840.50;;;8.12;38.26
21182;BME280;10749;46.296;7.524;2023-02-19T01:45:46;95832.06;;;8.09;38.72
21182;BME280;10749;46.296;7.524;2023-02-19T01:48:16;95838.28;;;8.08;38.56
21182;BME280;10749;46.296;7.524;2023-02-19T01:50:47;95836.94;;;7.94;39.18
21182;BME280;10749;46.296;7.524;2023-02-19T01:53:16;95839.44;;;7.86;39.43
21182;BME280;10749;46.296;7.524;2023-02-19T01:55:45;95833.03;;;7.88;39.20
21182;BME280;10749;46.296;7.524;2023-02-19T01:58:13;95842.63;;;7.89;39.49
21182;BME280;10749;46.296;7.524;2023-02-19T02:00:39;95833.03;;;7.79;39.43
21182;BME280;10749;46.296;7.524;2023-02-19T02:03:04;95833.31;;;7.76;38.98
21182;BME280;10749;46.296;7.524;2023-02-19T02:08:01;95827.22;;;7.66;39.41
21182;BME280;10749;46.296;7.524;2023-02-19T02:10:45;95832.50;;;7.66;39.38
21182;BME280;10749;46.296;7.524;2023-02-19T02:13:10;95826.53;;;7.64;39.61
21182;BME280;10749;46.296;7.524;2023-02-19T02:15:48;95835.25;;;7.64;39.40
21182;BME280;10749;46.296;7.524;2023-02-19T02:18:27;95828.47;;;7.62;39.67
21182;BME280;10749;46.296;7.524;2023-02-19T02:23:48;95830.94;;;7.54;39.77
21182;BME280;10749;46.296;7.524;2023-02-19T02:26:34;95825.25;;;7.58;39.58
21182;BME280;10749;46.296;7.524;2023-02-19T02:29:17;95825.28;;;7.68;39.72
21182;BME280;10749;46.296;7.524;2023-02-19T02:31:53;95820.56;;;7.71;38.71
21182;BME280;10749;46.296;7.524;2023-02-19T02:34:26;95828.88;;;7.67;38.83
21182;BME280;10749;46.296;7.524;2023-02-19T02:36:55;95820.41;;;7.63;39.17
21182;BME280;10749;46.296;7.524;2023-02-19T02:39:24;95813.91;;;7.58;39.44
21182;BME280;10749;46.296;7.524;2023-02-19T02:41:57;95812.25;;;7.57;39.29
21182;BME280;10749;46.296;7.524;2023-02-19T02:44:41;95808.22;;;7.53;39.64
21182;BME280;10749;46.296;7.524;2023-02-19T02:47:28;95813.63;;;7.51;39.39
21182;BME280;10749;46.296;7.524;2023-02-19T02:50:08;95811.81;;;7.52;39.60
21182;BME280;10749;46.296;7.524;2023-02-19T02:52:37;95803.19;;;7.50;39.88
21182;BME280;10749;46.296;7.524;2023-02-19T02:55:23;95803.50;;;7.47;40.03
21182;BME280;10749;46.296;7.524;2023-02-19T02:57:50;95804.44;;;7.46;39.66
21182;BME280;10749;46.296;7.524;2023-02-19T03:00:15;95807.50;;;7.51;39.09
21182;BME280;10749;46.296;7.524;2023-02-19T03:02:42;95807.09;;;7.46;39.79
21182;BME280;10749;46.296;7.524;2023-02-19T03:05:20;95811.09;;;7.50;39.57
21182;BME280;10749;46.296;7.524;2023-02-19T03:08:10;95800.59;;;7.40;39.91
21182;BME280;10749;46.296;7.524;2023-02-19T03:11:01;95807.78;;;7.38;40.19
21182;BME280;10749;46.296;7.524;2023-02-19T03:13:50;95803.91;;;7.32;40.13
21182;BME280;10749;46.296;7.524;2023-02-19T03:16:36;95796.97;;;7.31;40.37
21182;BME280;10749;46.296;7.524;2023-02-19T03:19:26;95798.47;;;7.34;40.20
21182;BME280;10749;46.296;7.524;2023-02-19T03:22:09;95789.75;;;7.33;40.18
21182;BME280;10749;46.296;7.524;2023-02-19T03:24:41;95781.16;;;7.31;40.41
21182;BME280;10749;46.296;7.524;2023-02-19T03:27:27;95784.75;;;7.30;40.34
21182;BME280;10749;46.296;7.524;2023-02-19T03:29:57;95791.69;;;7.31;40.30
21182;BME280;10749;46.296;7.524;2023-02-19T03:32:32;95796.13;;;7.31;40.04
21182;BME280;10749;46.296;7.524;2023-02-19T03:35:05;95797.50;;;7.25;39.85
21182;BME280;10749;46.296;7.524;2023-02-19T03:37:48;95790.59;;;7.24;39.61
21182;BME280;10749;46.296;7.524;2023-02-19T03:40:15;95787.38;;;7.11;40.22
21182;BME280;10749;46.296;7.524;2023-02-19T03:42:59;95783.59;;;7.04;40.22
21182;BME280;10749;46.296;7.524;2023-02-19T03:45:35;95803.00;;;7.03;40.60
21182;BME280;10749;46.296;7.524;2023-02-19T03:48:32;95792.06;;;6.98;40.66
21182;BME280;10749;46.296;7.524;2023-02-19T03:51:17;95797.59;;;6.95;40.97
21182;BME280;10749;46.296;7.524;2023-02-19T03:56:29;95796.88;;;6.93;40.57
21182;BME280;10749;46.296;7.524;2023-02-19T04:01:40;95793.28;;;6.94;40.78
21182;BME280;10749;46.296;7.524;2023-02-19T04:04:33;95794.56;;;7.00;41.07
21182;BME280;10749;46.296;7.524;2023-02-19T04:07:00;95797.47;;;7.06;40.91
21182;BME280;10749;46.296;7.524;2023-02-19T04:09:34;95785.16;;;7.07;40.92
21182;BME280;10749;46.296;7.524;2023-02-19T04:12:02;95787.78;;;7.07;40.31
21182;BME280;10749;46.296;7.524;2023-02-19T04:14:51;95782.50;;;7.07;39.98
21182;BME280;10749;46.296;7.524;2023-02-19T04:17:35;95780.00;;;7.05;39.79
21182;BME280;10749;46.296;7.524;2023-02-19T04:20:05;95781.56;;;7.08;40.31
21182;BME280;10749;46.296;7.524;2023-02-19T04:22:32;95780.00;;;7.05;40.44
21182;BME280;10749;46.296;7.524;2023-02-19T04:24:58;95776.41;;;7.06;40.83
21182;BME280;10749;46.296;7.524;2023-02-19T04:27:25;95781.69;;;7.06;41.04
21182;BME280;10749;46.296;7.524;2023-02-19T04:29:50;95778.63;;;7.11;40.71
21182;BME280;10749;46.296;7.524;2023-02-19T04:32:15;95784.03;;;7.09;40.88
21182;BME280;10749;46.296;7.524;2023-02-19T04:34:41;95778.59;;;7.01;41.24
21182;BME280;10749;46.296;7.524;2023-02-19T04:37:06;95769.19;;;7.08;41.17
21182;BME280;10749;46.296;7.524;2023-02-19T04:39:32;95764.78;;;7.18;40.97
21182;BME280;10749;46.296;7.524;2023-02-19T04:41:57;95766.47;;;7.19;40.88
21182;BME280;10749;46.296;7.524;2023-02-19T04:44:22;95767.81;;;7.14;40.92
21182;BME280;10749;46.296;7.524;2023-02-19T04:46:48;95764.91;;;7.17;40.87
21182;BME280;10749;46.296;7.524;2023-02-19T04:49:13;95766.72;;;7.07;41.19
21182;BME280;10749;46.296;7.524;2023-02-19T04:51:39;95774.63;;;7.07;41.64
21182;BME280;10749;46.296;7.524;2023-02-19T04:54:05;95776.25;;;6.98;41.76
21182;BME280;10749;46.296;7.524;2023-02-19T04:56:30;95777.50;;;6.94;41.80
21182;BME280;10749;46.296;7.524;2023-02-19T04:58:55;95772.22;;;6.94;41.68
21182;BME280;10749;46.296;7.524;2023-02-19T05:01:21;95771.69;;;6.90;41.86
21182;BME280;10749;46.296;7.524;2023-02-19T05:03:46;95768.59;;;6.85;42.01
21182;BME280;10749;46.296;7.524;2023-02-19T05:06:12;95764.69;;;6.80;41.68
21182;BME280;10749;46.296;7.524;2023-02-19T05:08:38;95759.84;;;6.75;41.93
21182;BME280;10749;46.296;7.524;2023-02-19T05:11:05;95757.81;;;6.79;41.92
21182;BME280;10749;46.296;7.524;2023-02-19T05:13:31;95759.59;;;6.78;41.77
21182;BME280;10749;46.296;7.524;2023-02-19T05:15:59;95769.41;;;6.76;41.65
21182;BME280;10749;46.296;7.524;2023-02-19T05:18:25;95768.00;;;6.72;41.88
21182;BME280;10749;46.296;7.524;2023-02-19T05:20:51;95772.44;;;6.72;41.77
21182;BME280;10749;46.296;7.524;2023-02-19T05:23:17;95775.50;;;6.77;40.88
21182;BME280;10749;46.296;7.524;2023-02-19T05:25:42;95772.75;;;6.78;40.79
21182;BME280;10749;46.296;7.524;2023-02-19T05:28:08;95777.19;;;6.78;40.94
21182;BME280;10749;46.296;7.524;2023-02-19T05:30:50;95768.56;;;6.76;40.99
21182;BME280;10749;46.296;7.524;2023-02-19T05:33:18;95764.69;;;6.70;41.19
21182;BME280;10749;46.296;7.524;2023-02-19T05:35:46;95767.28;;;6.61;41.69
21182;BME280;10749;46.296;7.524;2023-02-19T05:38:12;95777.41;;;6.65;41.53
21182;BME280;10749;46.296;7.524;2023-02-19T05:40:38;95780.31;;;6.72;41.77
21182;BME280;10749;46.296;7.524;2023-02-19T05:43:03;95773.97;;;6.74;41.25
21182;BME280;10749;46.296;7.524;2023-02-19T05:45:30;95778.53;;;6.72;40.64
21182;BME280;10749;46.296;7.524;2023-02-19T05:47:55;95776.56;;;6.65;40.03
21182;BME280;10749;46.296;7.524;2023-02-19T05:50:21;95774.88;;;6.54;40.80
21182;BME280;10749;46.296;7.524;2023-02-19T05:52:47;95761.53;;;6.46;40.00
21182;BME280;10749;46.296;7.524;2023-02-19T05:55:12;95768.28;;;6.39;40.33
21182;BME280;10749;46.296;7.524;2023-02-19T05:57:41;95760.78;;;6.34;40.82
21182;BME280;10749;46.296;7.524;2023-02-19T06:00:09;95758.16;;;6.34;41.33
21182;BME280;10749;46.296;7.524;2023-02-19T06:02:35;95761.63;;;6.35;41.74
21182;BME280;10749;46.296;7.524;2023-02-19T06:05:01;95769.41;;;6.36;42.11
21182;BME280;10749;46.296;7.524;2023-02-19T06:07:26;95770.09;;;6.38;41.73
21182;BME280;10749;46.296;7.524;2023-02-19T06:09:51;95773.72;;;6.37;40.72
21182;BME280;10749;46.296;7.524;2023-02-19T06:12:17;95781.72;;;6.36;40.27
21182;BME280;10749;46.296;7.524;2023-02-19T06:14:42;95783.22;;;6.29;39.69
21182;BME280;10749;46.296;7.524;2023-02-19T06:17:07;95785.78;;;6.19;39.06
21182;BME280;10749;46.296;7.524;2023-02-19T06:19:33;95784.09;;;6.18;39.20
21182;BME280;10749;46.296;7.524;2023-02-19T06:21:58;95783.06;;;6.30;39.80
21182;BME280;10749;46.296;7.524;2023-02-19T06:24:23;95781.31;;;6.40;40.51
21182;BME280;10749;46.296;7.524;2023-02-19T06:26:48;95774.28;;;6.50;40.59
21182;BME280;10749;46.296;7.524;2023-02-19T06:29:15;95780.00;;;6.56;41.26
21182;BME280;10749;46.296;7.524;2023-02-19T06:31:40;95780.94;;;6.55;41.30
21182;BME280;10749;46.296;7.524;2023-02-19T06:34:06;95771.81;;;6.59;41.29
21182;BME280;10749;46.296;7.524;2023-02-19T06:36:31;95777.25;;;6.57;40.66
21182;BME280;10749;46.296;7.524;2023-02-19T06:39:01;95775.97;;;6.52;40.07
21182;BME280;10749;46.296;7.524;2023-02-19T06:41:27;95765.41;;;6.42;39.81
21182;BME280;10749;46.296;7.524;2023-02-19T06:43:52;95776.44;;;6.36;39.67
21182;BME280;10749;46.296;7.524;2023-02-19T06:46:17;95772.31;;;6.33;39.88
21182;BME280;10749;46.296;7.524;2023-02-19T06:48:43;95772.03;;;6.36;40.54
21182;BME280;10749;46.296;7.524;2023-02-19T06:51:16;95772.72;;;6.38;40.83
21182;BME280;10749;46.296;7.524;2023-02-19T06:53:48;95779.13;;;6.45;41.09
21182;BME280;10749;46.296;7.524;2023-02-19T06:58:49;95790.34;;;6.47;42.07
21182;BME280;10749;46.296;7.524;2023-02-19T07:01:14;95789.81;;;6.54;42.13
21182;BME280;10749;46.296;7.524;2023-02-19T07:03:39;95789.81;;;6.54;41.34
21182;BME280;10749;46.296;7.524;2023-02-19T07:06:05;95787.19;;;6.54;41.20
21182;BME280;10749;46.296;7.524;2023-02-19T07:08:30;95792.75;;;6.60;41.54
21182;BME280;10749;46.296;7.524;2023-02-19T07:10:57;95798.50;;;6.75;41.31
21182;BME280;10749;46.296;7.524;2023-02-19T07:13:23;95792.97;;;6.78;41.94
21182;BME280;10749;46.296;7.524;2023-02-19T07:15:49;95801.03;;;6.86;42.21
21182;BME280;10749;46.296;7.524;2023-02-19T07:18:14;95816.97;;;6.94;42.62
21182;BME280;10749;46.296;7.524;2023-02-19T07:20:39;95811.03;;;7.02;42.86
21182;BME280;10749;46.296;7.524;2023-02-19T07:23:05;95815.19;;;6.94;43.07
21182;BME280;10749;46.296;7.524;2023-02-19T07:25:30;95815.97;;;6.85;43.08
21182;BME280;10749;46.296;7.524;2023-02-19T07:27:55;95820.94;;;6.79;42.74
21182;BME280;10749;46.296;7.524;2023-02-19T07:30:22;95812.06;;;6.80;41.87
21182;BME280;10749;46.296;7.524;2023-02-19T07:32:47;95826.06;;;6.80;42.26
21182;BME280;10749;46.296;7.524;2023-02-19T07:35:12;95819.28;;;6.78;42.44
21182;BME280;10749;46.296;7.524;2023-02-19T07:37:39;95821.50;;;6.82;42.62
21182;BME280;10749;46.296;7.524;2023-02-19T07:40:05;95824.16;;;6.92;42.77
21182;BME280;10749;46.296;7.524;2023-02-19T07:42:31;95812.16;;;6.99;42.85
21182;BME280;10749;46.296;7.524;2023-02-19T07:44:56;95817.41;;;7.09;42.62
21182;BME280;10749;46.296;7.524;2023-02-19T07:47:21;95818.41;;;7.17;42.61
21182;BME280;10749;46.296;7.524;2023-02-19T07:49:47;95808.31;;;7.22;42.91
21182;BME280;10749;46.296;7.524;2023-02-19T07:52:12;95811.66;;;7.34;43.18
21182;BME280;10749;46.296;7.524;2023-02-19T07:54:37;95809.44;;;7.39;43.01
21182;BME280;10749;46.296;7.524;2023-02-19T07:57:02;95800.84;;;7.47;43.04
21182;BME280;10749;46.296;7.524;2023-02-19T07:59:28;95796.44;;;7.57;43.13
21182;BME280;10749;46.296;7.524;2023-02-19T08:01:53;95802.81;;;7.64;42.99
21182;BME280;10749;46.296;7.524;2023-02-19T08:04:37;95805.16;;;7.67;42.90
21182;BME280;10749;46.296;7.524;2023-02-19T08:07:02;95808.34;;;7.70;43.22
21182;BME280;10749;46.296;7.524;2023-02-19T08:09:29;95808.63;;;7.77;43.06
21182;BME280;10749;46.296;7.524;2023-02-19T08:11:54;95811.16;;;7.78;43.28
21182;BME280;10749;46.296;7.524;2023-02-19T08:14:38;95821.81;;;7.77;43.23
21182;BME280;10749;46.296;7.524;2023-02-19T08:17:04;95819.47;;;7.74;43.28
21182;BME280;10749;46.296;7.524;2023-02-19T08:19:29;95824.03;;;7.72;43.84
21182;BME280;10749;46.296;7.524;2023-02-19T08:21:54;95823.47;;;7.68;43.79
21182;BME280;10749;46.296;7.524;2023-02-19T08:24:20;95820.56;;;7.62;43.99
21182;BME280;10749;46.296;7.524;2023-02-19T08:26:45;95821.97;;;7.66;43.72
21182;BME280;10749;46.296;7.524;2023-02-19T08:29:10;95828.19;;;7.84;42.74
21182;BME280;10749;46.296;7.524;2023-02-19T08:31:36;95827.22;;;7.95;42.76
21182;BME280;10749;46.296;7.524;2023-02-19T08:34:01;95822.50;;;7.98;42.74
21182;BME280;10749;46.296;7.524;2023-02-19T08:36:27;95817.66;;;8.03;42.67
21182;BME280;10749;46.296;7.524;2023-02-19T08:38:52;95827.44;;;8.20;43.21
21182;BME280;10749;46.296;7.524;2023-02-19T08:41:18;95828.44;;;8.39;43.69
21182;BME280;10749;46.296;7.524;2023-02-19T08:43:43;95821.84;;;8.62;43.50
21182;BME280;10749;46.296;7.524;2023-02-19T08:46:09;95823.06;;;8.77;43.05
21182;BME280;10749;46.296;7.524;2023-02-19T08:48:36;95815.06;;;8.87;43.42
21182;BME280;10749;46.296;7.524;2023-02-19T08:51:04;95811.44;;;8.97;42.50
21182;BME280;10749;46.296;7.524;2023-02-19T08:53:33;95817.63;;;9.06;42.49
21182;BME280;10749;46.296;7.524;2023-02-19T08:56:03;95812.69;;;9.20;42.97
21182;BME280;10749;46.296;7.524;2023-02-19T08:58:29;95805.84;;;9.27;42.79
21182;BME280;10749;46.296;7.524;2023-02-19T09:00:54;95815.66;;;9.35;43.10
21182;BME280;10749;46.296;7.524;2023-02-19T09:03:19;95807.66;;;9.45;42.19
21182;BME280;10749;46.296;7.524;2023-02-19T09:05:44;95810.31;;;9.45;42.29
21182;BME280;10749;46.296;7.524;2023-02-19T09:08:11;95810.03;;;9.48;42.64
21182;BME280;10749;46.296;7.524;2023-02-19T09:10:36;95815.53;;;9.54;42.59
21182;BME280;10749;46.296;7.524;2023-02-19T09:13:01;95812.44;;;9.59;42.96
21182;BME280;10749;46.296;7.524;2023-02-19T09:15:27;95819.88;;;9.73;42.97
21182;BME280;10749;46.296;7.524;2023-02-19T09:17:53;95812.81;;;9.82;43.03
21182;BME280;10749;46.296;7.524;2023-02-19T09:20:19;95814.66;;;9.81;42.89
21182;BME280;10749;46.296;7.524;2023-02-19T09:22:44;95815.69;;;9.88;42.75
21182;BME280;10749;46.296;7.524;2023-02-19T09:25:09;95818.94;;;9.82;43.05
21182;BME280;10749;46.296;7.524;2023-02-19T09:27:35;95819.69;;;9.74;43.34
21182;BME280;10749;46.296;7.524;2023-02-19T09:30:00;95814.63;;;9.63;43.14
21182;BME280;10749;46.296;7.524;2023-02-19T09:32:25;95813.09;;;9.61;43.28
21182;BME280;10749;46.296;7.524;2023-02-19T09:34:51;95811.31;;;9.61;43.18
21182;BME280;10749;46.296;7.524;2023-02-19T09:37:16;95816.00;;;9.67;43.57
21182;BME280;10749;46.296;7.524;2023-02-19T09:39:41;95810.34;;;9.80;43.30
21182;BME280;10749;46.296;7.524;2023-02-19T09:42:16;95808.16;;;9.93;43.43
21182;BME280;10749;46.296;7.524;2023-02-19T09:44:45;95808.81;;;9.95;43.34
21182;BME280;10749;46.296;7.524;2023-02-19T09:47:18;95804.88;;;9.99;43.64
21182;BME280;10749;46.296;7.524;2023-02-19T09:49:46;95797.78;;;10.17;43.46
21182;BME280;10749;46.296;7.524;2023-02-19T09:54:50;95795.91;;;10.36;42.46
21182;BME280;10749;46.296;7.524;2023-02-19T09:57:18;95787.31;;;10.34;42.66
21182;BME280;10749;46.296;7.524;2023-02-19T09:59:48;95786.53;;;10.41;42.42
21182;BME280;10749;46.296;7.524;2023-02-19T10:02:20;95785.75;;;10.49;41.72
21182;BME280;10749;46.296;7.524;2023-02-19T10:04:46;95795.50;;;10.48;42.26
21182;BME280;10749;46.296;7.524;2023-02-19T10:07:24;95792.16;;;10.64;42.71
21182;BME280;10749;46.296;7.524;2023-02-19T10:10:01;95789.91;;;10.85;42.48
21182;BME280;10749;46.296;7.524;2023-02-19T10:12:29;95781.25;;;11.01;42.64
21182;BME280;10749;46.296;7.524;2023-02-19T10:15:08;95782.94;;;11.18;42.84
21182;BME280;10749;46.296;7.524;2023-02-19T10:17:35;95776.19;;;11.24;42.81
21182;BME280;10749;46.296;7.524;2023-02-19T10:20:01;95778.84;;;11.32;42.60
21182;BME280;10749;46.296;7.524;2023-02-19T10:22:29;95775.59;;;11.46;42.53
21182;BME280;10749;46.296;7.524;2023-02-19T10:24:56;95773.59;;;11.48;42.69
21182;BME280;10749;46.296;7.524;2023-02-19T10:27:25;95770.94;;;11.56;42.42
21182;BME280;10749;46.296;7.524;2023-02-19T10:29:53;95772.34;;;11.84;42.40
21182;BME280;10749;46.296;7.524;2023-02-19T10:32:21;95770.03;;;12.14;42.63
21182;BME280;10749;46.296;7.524;2023-02-19T10:35:08;95767.69;;;12.35;42.24
21182;BME280;10749;46.296;7.524;2023-02-19T10:37:34;95768.69;;;12.34;42.34
21182;BME280;10749;46.296;7.524;2023-02-19T10:40:01;95763.69;;;12.39;41.82
21182;BME280;10749;46.296;7.524;2023-02-19T10:42:26;95774.81;;;12.59;42.06
21182;BME280;10749;46.296;7.524;2023-02-19T10:44:54;95766.59;;;12.76;42.19
21182;BME280;10749;46.296;7.524;2023-02-19T10:47:24;95770.34;;;12.98;42.19
21182;BME280;10749;46.296;7.524;2023-02-19T10:49:51;95768.50;;;13.07;41.89
21182;BME280;10749;46.296;7.524;2023-02-19T10:52:27;95762.81;;;13.10;41.80
21182;BME280;10749;46.296;7.524;2023-02-19T10:57:39;95757.72;;;13.39;41.88
21182;BME280;10749;46.296;7.524;2023-02-19T11:00:20;95755.94;;;13.62;42.24
21182;BME280;10749;46.296;7.524;2023-02-19T11:03:20;95750.91;;;13.67;41.07
21182;BME280;10749;46.296;7.524;2023-02-19T11:05:56;95744.66;;;13.60;41.30
21182;BME280;10749;46.296;7.524;2023-02-19T11:08:23;95751.38;;;13.71;41.07
21182;BME280;10749;46.296;7.524;2023-02-19T11:10:49;95739.44;;;13.90;41.18
21182;BME280;10749;46.296;7.524;2023-02-19T11:13:20;95739.16;;;13.84;40.41
21182;BME280;10749;46.296;7.524;2023-02-19T11:15:51;95738.91;;;13.94;40.66
21182;BME280;10749;46.296;7.524;2023-02-19T11:18:28;95729.59;;;14.13;40.78
21182;BME280;10749;46.296;7.524;2023-02-19T11:20:59;95733.22;;;14.20;40.63
21182;BME280;10749;46.296;7.524;2023-02-19T11:23:30;95724.78;;;14.31;40.66
21182;BME280;10749;46.296;7.524;2023-02-19T11:26:00;95724.47;;;14.49;40.21
21182;BME280;10749;46.296;7.524;2023-02-19T11:28:39;95728.59;;;14.66;40.62
21182;BME280;10749;46.296;7.524;2023-02-19T11:31:31;95712.34;;;14.75;39.99
21182;BME280;10749;46.296;7.524;2023-02-19T11:34:25;95714.81;;;14.92;40.08
21182;BME280;10749;46.296;7.524;2023-02-19T11:39:35;95701.81;;;15.18;40.17
21182;BME280;10749;46.296;7.524;2023-02-19T11:53:18;95683.88;;;15.84;39.30
21182;BME280;10749;46.296;7.524;2023-02-19T11:55:58;95671.53;;;15.83;39.04
21182;BME280;10749;46.296;7.524;2023-02-19T12:01:08;95680.03;;;16.14;39.34
21182;BME280;10749;46.296;7.524;2023-02-19T12:09:01;95664.88;;;16.83;39.00
21182;BME280;10749;46.296;7.524;2023-02-19T12:11:53;95665.81;;;17.03;38.39
21182;BME280;10749;46.296;7.524;2023-02-19T12:22:31;95640.50;;;17.80;37.98
21182;BME280;10749;46.296;7.524;2023-02-19T12:36:26;95621.72;;;18.45;37.75
21182;BME280;10749;46.296;7.524;2023-02-19T12:41:45;95616.41;;;18.97;37.61
21182;BME280;10749;46.296;7.524;2023-02-19T12:44:36;95616.84;;;18.94;36.74
21182;BME280;10749;46.296;7.524;2023-02-19T12:47:04;95618.72;;;18.93;36.79
21182;BME280;10749;46.296;7.524;2023-02-19T12:49:35;95621.09;;;19.14;36.86
21182;BME280;10749;46.296;7.524;2023-02-19T12:52:13;95613.13;;;19.46;37.22
21182;BME280;10749;46.296;7.524;2023-02-19T12:54:44;95608.44;;;19.66;37.12
21182;BME280;10749;46.296;7.524;2023-02-19T12:57:18;95603.53;;;19.63;36.86
21182;BME280;10749;46.296;7.524;2023-02-19T13:02:28;95614.28;;;19.88;37.24
21182;BME280;10749;46.296;7.524;2023-02-19T13:05:02;95608.19;;;19.74;36.68
21182;BME280;10749;46.296;7.524;2023-02-19T13:07:36;95606.88;;;19.83;36.17
21182;BME280;10749;46.296;7.524;2023-02-19T13:10:24;95610.00;;;20.05;35.89
21182;BME280;10749;46.296;7.524;2023-02-19T13:12:51;95608.63;;;20.20;35.22
21182;BME280;10749;46.296;7.524;2023-02-19T13:15:38;95608.53;;;20.34;35.17
21182;BME280;10749;46.296;7.524;2023-02-19T13:18:12;95606.75;;;20.46;34.79
21182;BME280;10749;46.296;7.524;2023-02-19T13:20:41;95603.34;;;20.57;34.44
21182;BME280;10749;46.296;7.524;2023-02-19T13:23:24;95594.38;;;20.81;34.77
21182;BME280;10749;46.296;7.524;2023-02-19T13:32:12;95590.22;;;21.33;33.78
21182;BME280;10749;46.296;7.524;2023-02-19T13:34:47;95589.84;;;21.30;33.64
21182;BME280;10749;46.296;7.524;2023-02-19T13:37:15;95578.94;;;21.25;33.20
21182;BME280;10749;46.296;7.524;2023-02-19T13:39:46;95572.06;;;21.29;34.14
21182;BME280;10749;46.296;7.524;2023-02-19T13:42:32;95568.78;;;21.27;34.30
21182;BME280;10749;46.296;7.524;2023-02-19T13:45:00;95573.19;;;21.51;34.21
21182;BME280;10749;46.296;7.524;2023-02-19T13:52:50;95569.13;;;22.25;32.81
21182;BME280;10749;46.296;7.524;2023-02-19T13:58:35;95572.28;;;22.80;32.51
21182;BME280;10749;46.296;7.524;2023-02-19T14:01:03;95564.81;;;22.98;31.86
21182;BME280;10749;46.296;7.524;2023-02-19T14:04:39;95561.81;;;22.83;31.07
21182;BME280;10749;46.296;7.524;2023-02-19T14:07:18;95561.16;;;23.44;31.27
21182;BME280;10749;46.296;7.524;2023-02-19T14:14:51;95558.13;;;25.13;31.25
21182;BME280;10749;46.296;7.524;2023-02-19T14:17:42;95566.31;;;26.67;32.33
21182;BME280;10749;46.296;7.524;2023-02-19T14:25:23;95556.25;;;28.22;29.37
21182;BME280;10749;46.296;7.524;2023-02-19T14:27:52;95549.25;;;27.34;27.09
21182;BME280;10749;46.296;7.524;2023-02-19T14:30:20;95544.56;;;28.22;28.71
21182;BME280;10749;46.296;7.524;2023-02-19T14:32:47;95537.69;;;26.44;27.01
21182;BME280;10749;46.296;7.524;2023-02-19T14:35:24;95540.81;;;25.94;27.69
21182;BME280;10749;46.296;7.524;2023-02-19T14:37:54;95519.75;;;25.21;27.40
21182;BME280;10749;46.296;7.524;2023-02-19T14:40:24;95510.03;;;25.25;28.20
21182;BME280;10749;46.296;7.524;2023-02-19T14:42:54;95507.88;;;24.07;26.43
21182;BME280;10749;46.296;7.524;2023-02-19T14:45:21;95509.50;;;22.84;27.55
21182;BME280;10749;46.296;7.524;2023-02-19T14:47:49;95514.22;;;22.54;28.95
21182;BME280;10749;46.296;7.524;2023-02-19T14:50:29;95513.53;;;21.77;28.34
21182;BME280;10749;46.296;7.524;2023-02-19T14:53:02;95510.13;;;20.99;28.09